sensor_id;sensor_type;location;lat;lon;timestamp;P1;durP1;ratioP1;P2;durP2;ratioP2
239;SDS011;104;53.590;10.004;2024-03-02T00:00:48;104.90;;;37.37;;
239;SDS011;104;53.590;10.004;2024-03-02T00:03:16;103.70;;;36.73;;
239;SDS011;104;53.590;10.004;2024-03-02T00:05:43;103.80;;;36.30;;
239;SDS011;104;53.590;10.004;2024-03-02T00:08:11;99.03;;;36.27;;
239;SDS011;104;53.590;10.004;2024-03-02T00:10:39;88.57;;;35.10;;
239;SDS011;104;53.590;10.004;2024-03-02T00:13:06;98.37;;;35.67;;
239;SDS011;104;53.590;10.004;2024-03-02T00:15:42;109.70;;;37.37;;
239;SDS011;104;53.590;10.004;2024-03-02T00:18:12;102.83;;;38.40;;
239;SDS011;104;53.590;10.004;2024-03-02T00:20:40;116.97;;;37.07;;
239;SDS011;104;53.590;10.004;2024-03-02T00:23:07;99.27;;;37.00;;
239;SDS011;104;53.590;10.004;2024-03-02T00:25:39;102.17;;;36.30;;
239;SDS011;104;53.590;10.004;2024-03-02T00:28:11;103.73;;;36.10;;
239;SDS011;104;53.590;10.004;2024-03-02T00:30:49;110.73;;;37.40;;
239;SDS011;104;53.590;10.004;2024-03-02T00:33:18;106.57;;;36.60;;
239;SDS011;104;53.590;10.004;2024-03-02T00:35:45;109.27;;;36.33;;
239;SDS011;104;53.590;10.004;2024-03-02T00:38:13;101.33;;;37.47;;
239;SDS011;104;53.590;10.004;2024-03-02T00:40:41;109.47;;;37.00;;
239;SDS011;104;53.590;10.004;2024-03-02T00:43:10;94.00;;;35.13;;
239;SDS011;104;53.590;10.004;2024-03-02T00:45:42;92.73;;;35.37;;
239;SDS011;104;53.590;10.004;2024-03-02T00:48:10;104.10;;;35.50;;
239;SDS011;104;53.590;10.004;2024-03-02T00:50:37;96.33;;;36.27;;
239;SDS011;104;53.590;10.004;2024-03-02T00:53:05;96.53;;;35.17;;
239;SDS011;104;53.590;10.004;2024-03-02T00:55:33;103.30;;;36.77;;
239;SDS011;104;53.590;10.004;2024-03-02T00:58:03;99.97;;;36.87;;
239;SDS011;104;53.590;10.004;2024-03-02T01:00:30;102.80;;;36.60;;
239;SDS011;104;53.590;10.004;2024-03-02T01:02:57;100.83;;;35.60;;
239;SDS011;104;53.590;10.004;2024-03-02T01:05:26;97.67;;;36.50;;
239;SDS011;104;53.590;10.004;2024-03-02T01:07:53;86.73;;;34.37;;
239;SDS011;104;53.590;10.004;2024-03-02T01:10:20;95.80;;;33.50;;
239;SDS011;104;53.590;10.004;2024-03-02T01:12:47;90.20;;;35.20;;
239;SDS011;104;53.590;10.004;2024-03-02T01:15:15;87.20;;;34.63;;
239;SDS011;104;53.590;10.004;2024-03-02T01:17:42;87.03;;;33.23;;
239;SDS011;104;53.590;10.004;2024-03-02T01:20:09;87.03;;;34.67;;
239;SDS011;104;53.590;10.004;2024-03-02T01:22:38;88.97;;;32.30;;
239;SDS011;104;53.590;10.004;2024-03-02T01:25:06;87.23;;;30.67;;
239;SDS011;104;53.590;10.004;2024-03-02T01:27:33;85.33;;;31.67;;
239;SDS011;104;53.590;10.004;2024-03-02T01:30:01;89.53;;;32.17;;
239;SDS011;104;53.590;10.004;2024-03-02T01:32:28;75.60;;;29.73;;
239;SDS011;104;53.590;10.004;2024-03-02T01:34:55;77.13;;;31.10;;
239;SDS011;104;53.590;10.004;2024-03-02T01:37:23;81.27;;;29.57;;
239;SDS011;104;53.590;10.004;2024-03-02T01:39:51;72.07;;;30.57;;
239;SDS011;104;53.590;10.004;2024-03-02T01:42:18;74.17;;;32.00;;
239;SDS011;104;53.590;10.004;2024-03-02T01:44:45;76.90;;;30.00;;
239;SDS011;104;53.590;10.004;2024-03-02T01:47:13;72.40;;;29.83;;
239;SDS011;104;53.590;10.004;2024-03-02T01:49:40;69.07;;;30.37;;
239;SDS011;104;53.590;10.004;2024-03-02T01:52:07;77.30;;;31.37;;
239;SDS011;104;53.590;10.004;2024-03-02T01:54:34;73.83;;;30.67;;
239;SDS011;104;53.590;10.004;2024-03-02T01:57:03;82.60;;;30.40;;
239;SDS011;104;53.590;10.004;2024-03-02T01:59:31;72.30;;;30.27;;
239;SDS011;104;53.590;10.004;2024-03-02T02:01:59;84.10;;;31.03;;
239;SDS011;104;53.590;10.004;2024-03-02T02:04:26;77.00;;;31.50;;
239;SDS011;104;53.590;10.004;2024-03-02T02:06:54;73.57;;;30.60;;
239;SDS011;104;53.590;10.004;2024-03-02T02:09:21;66.00;;;28.13;;
239;SDS011;104;53.590;10.004;2024-03-02T02:11:49;83.80;;;31.30;;
239;SDS011;104;53.590;10.004;2024-03-02T02:14:18;79.60;;;32.03;;
239;SDS011;104;53.590;10.004;2024-03-02T02:16:46;72.47;;;30.80;;
239;SDS011;104;53.590;10.004;2024-03-02T02:19:13;87.57;;;31.50;;
239;SDS011;104;53.590;10.004;2024-03-02T02:21:43;94.43;;;33.37;;
239;SDS011;104;53.590;10.004;2024-03-02T02:24:10;85.97;;;32.47;;
239;SDS011;104;53.590;10.004;2024-03-02T02:26:38;90.93;;;31.70;;
239;SDS011;104;53.590;10.004;2024-03-02T02:29:05;93.60;;;33.83;;
239;SDS011;104;53.590;10.004;2024-03-02T02:31:36;85.07;;;32.37;;
239;SDS011;104;53.590;10.004;2024-03-02T02:34:04;88.17;;;33.70;;
239;SDS011;104;53.590;10.004;2024-03-02T02:36:31;87.57;;;32.27;;
239;SDS011;104;53.590;10.004;2024-03-02T02:38:59;84.37;;;33.70;;
239;SDS011;104;53.590;10.004;2024-03-02T02:41:29;85.03;;;32.10;;
239;SDS011;104;53.590;10.004;2024-03-02T02:43:56;88.83;;;33.40;;
239;SDS011;104;53.590;10.004;2024-03-02T02:46:23;99.47;;;36.07;;
239;SDS011;104;53.590;10.004;2024-03-02T02:48:51;86.57;;;33.70;;
239;SDS011;104;53.590;10.004;2024-03-02T02:51:18;92.97;;;35.03;;
239;SDS011;104;53.590;10.004;2024-03-02T02:53:46;94.60;;;35.20;;
239;SDS011;104;53.590;10.004;2024-03-02T02:56:14;87.87;;;34.70;;
239;SDS011;104;53.590;10.004;2024-03-02T02:58:42;90.23;;;33.70;;
239;SDS011;104;53.590;10.004;2024-03-02T03:01:09;99.27;;;34.60;;
239;SDS011;104;53.590;10.004;2024-03-02T03:03:36;97.57;;;36.23;;
239;SDS011;104;53.590;10.004;2024-03-02T03:06:03;100.30;;;35.10;;
239;SDS011;104;53.590;10.004;2024-03-02T03:08:30;94.23;;;35.90;;
239;SDS011;104;53.590;10.004;2024-03-02T03:10:58;94.13;;;34.77;;
239;SDS011;104;53.590;10.004;2024-03-02T03:13:26;94.43;;;34.80;;
239;SDS011;104;53.590;10.004;2024-03-02T03:15:53;96.63;;;35.90;;
239;SDS011;104;53.590;10.004;2024-03-02T03:18:21;106.83;;;38.00;;
239;SDS011;104;53.590;10.004;2024-03-02T03:20:48;91.57;;;33.77;;
239;SDS011;104;53.590;10.004;2024-03-02T03:23:15;98.33;;;34.80;;
239;SDS011;104;53.590;10.004;2024-03-02T03:25:42;103.17;;;35.80;;
239;SDS011;104;53.590;10.004;2024-03-02T03:28:09;113.10;;;36.50;;
239;SDS011;104;53.590;10.004;2024-03-02T03:30:38;93.97;;;34.03;;
239;SDS011;104;53.590;10.004;2024-03-02T03:33:06;107.17;;;37.00;;
239;SDS011;104;53.590;10.004;2024-03-02T03:35:33;99.73;;;35.80;;
239;SDS011;104;53.590;10.004;2024-03-02T03:38:00;101.57;;;37.20;;
239;SDS011;104;53.590;10.004;2024-03-02T03:40:27;109.47;;;36.60;;
239;SDS011;104;53.590;10.004;2024-03-02T03:42:55;100.50;;;36.63;;
239;SDS011;104;53.590;10.004;2024-03-02T03:45:22;99.63;;;37.10;;
239;SDS011;104;53.590;10.004;2024-03-02T03:47:52;103.13;;;37.23;;
239;SDS011;104;53.590;10.004;2024-03-02T03:50:19;105.57;;;37.67;;
239;SDS011;104;53.590;10.004;2024-03-02T03:52:46;96.33;;;35.57;;
239;SDS011;104;53.590;10.004;2024-03-02T03:55:14;106.00;;;36.90;;
239;SDS011;104;53.590;10.004;2024-03-02T03:57:41;101.63;;;35.67;;
239;SDS011;104;53.590;10.004;2024-03-02T04:00:08;101.63;;;36.03;;
239;SDS011;104;53.590;10.004;2024-03-02T04:02:37;103.60;;;36.23;;
239;SDS011;104;53.590;10.004;2024-03-02T04:05:06;99.40;;;36.23;;
239;SDS011;104;53.590;10.004;2024-03-02T04:07:36;110.37;;;36.50;;
239;SDS011;104;53.590;10.004;2024-03-02T04:10:06;105.23;;;36.40;;
239;SDS011;104;53.590;10.004;2024-03-02T04:12:34;114.63;;;35.27;;
239;SDS011;104;53.590;10.004;2024-03-02T04:15:02;115.20;;;37.57;;
239;SDS011;104;53.590;10.004;2024-03-02T04:17:29;113.47;;;37.10;;
239;SDS011;104;53.590;10.004;2024-03-02T04:19:58;91.23;;;35.97;;
239;SDS011;104;53.590;10.004;2024-03-02T04:22:27;99.53;;;36.37;;
239;SDS011;104;53.590;10.004;2024-03-02T04:24:54;97.60;;;36.40;;
239;SDS011;104;53.590;10.004;2024-03-02T04:27:21;117.40;;;37.63;;
239;SDS011;104;53.590;10.004;2024-03-02T04:29:48;98.70;;;36.10;;
239;SDS011;104;53.590;10.004;2024-03-02T04:32:15;96.80;;;35.30;;
239;SDS011;104;53.590;10.004;2024-03-02T04:34:44;100.93;;;34.70;;
239;SDS011;104;53.590;10.004;2024-03-02T04:37:11;109.83;;;36.83;;
239;SDS011;104;53.590;10.004;2024-03-02T04:39:41;98.50;;;35.97;;
239;SDS011;104;53.590;10.004;2024-03-02T04:42:08;95.97;;;36.20;;
239;SDS011;104;53.590;10.004;2024-03-02T04:44:35;96.70;;;35.20;;
239;SDS011;104;53.590;10.004;2024-03-02T04:47:03;91.63;;;35.50;;
239;SDS011;104;53.590;10.004;2024-03-02T04:49:30;98.40;;;35.20;;
239;SDS011;104;53.590;10.004;2024-03-02T04:51:57;109.93;;;36.37;;
239;SDS011;104;53.590;10.004;2024-03-02T04:54:24;107.40;;;37.70;;
239;SDS011;104;53.590;10.004;2024-03-02T04:56:53;110.40;;;36.40;;
239;SDS011;104;53.590;10.004;2024-03-02T04:59:20;104.40;;;36.60;;
239;SDS011;104;53.590;10.004;2024-03-02T05:01:47;110.93;;;37.17;;
239;SDS011;104;53.590;10.004;2024-03-02T05:04:14;104.13;;;38.40;;
239;SDS011;104;53.590;10.004;2024-03-02T05:06:42;103.30;;;36.03;;
239;SDS011;104;53.590;10.004;2024-03-02T05:09:09;113.83;;;39.57;;
239;SDS011;104;53.590;10.004;2024-03-02T05:11:36;108.20;;;38.10;;
239;SDS011;104;53.590;10.004;2024-03-02T05:14:28;104.50;;;35.10;;
239;SDS011;104;53.590;10.004;2024-03-02T05:16:55;106.70;;;39.30;;
239;SDS011;104;53.590;10.004;2024-03-02T05:19:22;101.47;;;37.10;;
239;SDS011;104;53.590;10.004;2024-03-02T05:21:50;113.60;;;40.10;;
239;SDS011;104;53.590;10.004;2024-03-02T05:24:17;108.37;;;37.27;;
239;SDS011;104;53.590;10.004;2024-03-02T05:26:44;105.63;;;37.10;;
239;SDS011;104;53.590;10.004;2024-03-02T05:29:11;108.40;;;37.77;;
239;SDS011;104;53.590;10.004;2024-03-02T05:31:41;94.40;;;37.10;;
239;SDS011;104;53.590;10.004;2024-03-02T08:42:16;70.23;;;31.67;;
239;SDS011;104;53.590;10.004;2024-03-02T08:44:46;83.40;;;32.20;;
239;SDS011;104;53.590;10.004;2024-03-02T08:47:14;77.70;;;32.70;;
239;SDS011;104;53.590;10.004;2024-03-02T08:49:51;75.40;;;32.23;;
239;SDS011;104;53.590;10.004;2024-03-02T11:36:22;59.93;;;25.90;;
239;SDS011;104;53.590;10.004;2024-03-02T11:38:50;62.47;;;27.40;;
239;SDS011;104;53.590;10.004;2024-03-02T11:41:18;52.80;;;23.97;;
239;SDS011;104;53.590;10.004;2024-03-02T11:43:46;52.50;;;24.10;;
239;SDS011;104;53.590;10.004;2024-03-02T11:46:14;53.93;;;24.90;;
239;SDS011;104;53.590;10.004;2024-03-02T11:48:41;52.77;;;25.07;;
239;SDS011;104;53.590;10.004;2024-03-02T11:51:08;58.00;;;27.20;;
239;SDS011;104;53.590;10.004;2024-03-02T11:53:38;57.00;;;27.43;;
239;SDS011;104;53.590;10.004;2024-03-02T11:56:06;59.40;;;26.20;;
239;SDS011;104;53.590;10.004;2024-03-02T11:58:34;47.40;;;22.93;;
239;SDS011;104;53.590;10.004;2024-03-02T12:01:02;45.93;;;22.70;;
239;SDS011;104;53.590;10.004;2024-03-02T12:03:30;47.57;;;22.93;;
239;SDS011;104;53.590;10.004;2024-03-02T12:06:00;44.30;;;23.67;;
239;SDS011;104;53.590;10.004;2024-03-02T12:08:28;44.07;;;22.23;;
239;SDS011;104;53.590;10.004;2024-03-02T12:10:57;50.40;;;22.63;;
239;SDS011;104;53.590;10.004;2024-03-02T12:13:24;51.30;;;23.90;;
239;SDS011;104;53.590;10.004;2024-03-02T12:15:53;49.47;;;22.77;;
239;SDS011;104;53.590;10.004;2024-03-02T12:18:21;47.23;;;24.00;;
239;SDS011;104;53.590;10.004;2024-03-02T12:20:49;43.63;;;23.20;;
239;SDS011;104;53.590;10.004;2024-03-02T12:23:18;43.50;;;22.67;;
239;SDS011;104;53.590;10.004;2024-03-02T12:25:46;45.93;;;22.70;;
239;SDS011;104;53.590;10.004;2024-03-02T12:28:14;44.20;;;22.33;;
239;SDS011;104;53.590;10.004;2024-03-02T12:30:42;42.07;;;22.40;;
239;SDS011;104;53.590;10.004;2024-03-02T12:33:10;41.37;;;22.80;;
239;SDS011;104;53.590;10.004;2024-03-02T12:35:38;46.23;;;23.30;;
239;SDS011;104;53.590;10.004;2024-03-02T12:38:06;42.63;;;21.30;;
239;SDS011;104;53.590;10.004;2024-03-02T12:40:33;45.40;;;22.93;;
239;SDS011;104;53.590;10.004;2024-03-02T12:43:02;50.00;;;24.40;;
239;SDS011;104;53.590;10.004;2024-03-02T12:45:30;54.63;;;23.73;;
239;SDS011;104;53.590;10.004;2024-03-02T12:47:59;46.17;;;22.50;;
239;SDS011;104;53.590;10.004;2024-03-02T12:50:27;45.57;;;22.07;;
239;SDS011;104;53.590;10.004;2024-03-02T12:52:55;52.60;;;23.70;;
239;SDS011;104;53.590;10.004;2024-03-02T12:55:22;45.33;;;22.33;;
239;SDS011;104;53.590;10.004;2024-03-02T12:57:49;47.80;;;23.40;;
239;SDS011;104;53.590;10.004;2024-03-02T13:00:18;43.03;;;21.50;;
239;SDS011;104;53.590;10.004;2024-03-02T13:02:46;50.53;;;23.70;;
239;SDS011;104;53.590;10.004;2024-03-02T13:05:13;42.00;;;21.63;;
239;SDS011;104;53.590;10.004;2024-03-02T13:07:40;44.87;;;21.87;;
239;SDS011;104;53.590;10.004;2024-03-02T13:10:08;48.90;;;22.50;;
239;SDS011;104;53.590;10.004;2024-03-02T13:12:35;48.00;;;23.57;;
239;SDS011;104;53.590;10.004;2024-03-02T13:15:03;51.63;;;24.43;;
239;SDS011;104;53.590;10.004;2024-03-02T13:17:34;43.53;;;22.87;;
239;SDS011;104;53.590;10.004;2024-03-02T13:20:04;43.93;;;22.00;;
239;SDS011;104;53.590;10.004;2024-03-02T13:22:35;46.20;;;23.27;;
239;SDS011;104;53.590;10.004;2024-03-02T13:25:02;48.30;;;23.30;;
239;SDS011;104;53.590;10.004;2024-03-02T13:27:30;46.37;;;23.23;;
239;SDS011;104;53.590;10.004;2024-03-02T13:29:57;42.80;;;22.63;;
239;SDS011;104;53.590;10.004;2024-03-02T13:32:25;45.93;;;23.70;;
239;SDS011;104;53.590;10.004;2024-03-02T13:34:52;43.57;;;21.50;;
239;SDS011;104;53.590;10.004;2024-03-02T13:37:21;39.60;;;21.10;;
239;SDS011;104;53.590;10.004;2024-03-02T13:39:48;49.87;;;24.27;;
239;SDS011;104;53.590;10.004;2024-03-02T13:42:15;47.43;;;23.07;;
239;SDS011;104;53.590;10.004;2024-03-02T13:44:43;48.27;;;23.23;;
239;SDS011;104;53.590;10.004;2024-03-02T13:47:13;51.13;;;23.67;;
239;SDS011;104;53.590;10.004;2024-03-02T13:49:40;42.60;;;22.10;;
239;SDS011;104;53.590;10.004;2024-03-02T13:52:10;48.27;;;22.13;;
239;SDS011;104;53.590;10.004;2024-03-02T13:54:39;41.30;;;21.60;;
239;SDS011;104;53.590;10.004;2024-03-02T13:57:07;43.57;;;21.43;;
239;SDS011;104;53.590;10.004;2024-03-02T13:59:34;40.30;;;22.17;;
239;SDS011;104;53.590;10.004;2024-03-02T14:02:02;50.03;;;24.43;;
239;SDS011;104;53.590;10.004;2024-03-02T14:04:30;45.07;;;21.40;;
239;SDS011;104;53.590;10.004;2024-03-02T14:06:58;46.40;;;23.03;;
239;SDS011;104;53.590;10.004;2024-03-02T14:09:25;47.70;;;22.60;;
239;SDS011;104;53.590;10.004;2024-03-02T14:11:54;38.97;;;19.70;;
239;SDS011;104;53.590;10.004;2024-03-02T14:14:22;37.70;;;20.00;;
239;SDS011;104;53.590;10.004;2024-03-02T14:16:50;51.10;;;22.00;;
239;SDS011;104;53.590;10.004;2024-03-02T14:19:18;44.63;;;22.40;;
239;SDS011;104;53.590;10.004;2024-03-02T14:24:50;47.53;;;22.17;;
239;SDS011;104;53.590;10.004;2024-03-02T14:27:19;43.63;;;21.77;;
239;SDS011;104;53.590;10.004;2024-03-02T14:29:46;39.27;;;20.63;;
239;SDS011;104;53.590;10.004;2024-03-02T14:32:13;42.93;;;21.50;;
239;SDS011;104;53.590;10.004;2024-03-02T14:34:40;42.90;;;21.13;;
239;SDS011;104;53.590;10.004;2024-03-02T14:37:09;50.00;;;21.13;;
239;SDS011;104;53.590;10.004;2024-03-02T14:39:36;44.97;;;20.83;;
239;SDS011;104;53.590;10.004;2024-03-02T14:42:04;49.27;;;21.97;;
239;SDS011;104;53.590;10.004;2024-03-02T14:44:33;50.60;;;22.70;;
239;SDS011;104;53.590;10.004;2024-03-02T14:47:00;47.57;;;22.40;;
239;SDS011;104;53.590;10.004;2024-03-02T14:49:29;47.40;;;22.50;;
239;SDS011;104;53.590;10.004;2024-03-02T14:51:56;42.40;;;20.20;;
239;SDS011;104;53.590;10.004;2024-03-02T14:54:23;48.50;;;22.67;;
239;SDS011;104;53.590;10.004;2024-03-02T14:56:50;43.80;;;21.87;;
239;SDS011;104;53.590;10.004;2024-03-02T14:59:18;52.07;;;21.00;;
239;SDS011;104;53.590;10.004;2024-03-02T15:01:46;49.30;;;22.00;;
239;SDS011;104;53.590;10.004;2024-03-02T15:04:14;44.20;;;21.57;;
239;SDS011;104;53.590;10.004;2024-03-02T15:06:44;47.43;;;21.50;;
239;SDS011;104;53.590;10.004;2024-03-02T15:09:11;39.07;;;20.40;;
239;SDS011;104;53.590;10.004;2024-03-02T15:11:38;44.47;;;21.33;;
239;SDS011;104;53.590;10.004;2024-03-02T15:14:06;45.67;;;21.77;;
239;SDS011;104;53.590;10.004;2024-03-02T15:16:33;44.23;;;21.10;;
239;SDS011;104;53.590;10.004;2024-03-02T15:19:02;43.43;;;20.90;;
239;SDS011;104;53.590;10.004;2024-03-02T15:21:29;49.40;;;21.90;;
239;SDS011;104;53.590;10.004;2024-03-02T15:23:56;42.50;;;20.70;;
239;SDS011;104;53.590;10.004;2024-03-02T15:26:23;43.90;;;21.27;;
239;SDS011;104;53.590;10.004;2024-03-02T15:28:51;44.43;;;21.70;;
239;SDS011;104;53.590;10.004;2024-03-02T15:31:21;45.43;;;22.17;;
239;SDS011;104;53.590;10.004;2024-03-02T15:33:48;47.07;;;22.27;;
239;SDS011;104;53.590;10.004;2024-03-02T15:36:17;41.90;;;21.20;;
239;SDS011;104;53.590;10.004;2024-03-02T15:38:44;59.87;;;27.10;;
239;SDS011;104;53.590;10.004;2024-03-02T15:41:12;50.00;;;21.57;;
239;SDS011;104;53.590;10.004;2024-03-02T15:43:39;43.03;;;20.87;;
239;SDS011;104;53.590;10.004;2024-03-02T15:46:08;54.23;;;21.47;;
239;SDS011;104;53.590;10.004;2024-03-02T15:48:35;45.30;;;21.17;;
239;SDS011;104;53.590;10.004;2024-03-02T15:51:02;43.67;;;20.17;;
239;SDS011;104;53.590;10.004;2024-03-02T15:53:31;45.43;;;20.60;;
239;SDS011;104;53.590;10.004;2024-03-02T15:55:58;45.57;;;20.97;;
239;SDS011;104;53.590;10.004;2024-03-02T15:58:26;54.10;;;22.43;;
239;SDS011;104;53.590;10.004;2024-03-02T16:00:53;56.50;;;21.90;;
239;SDS011;104;53.590;10.004;2024-03-02T16:03:23;45.70;;;21.17;;
239;SDS011;104;53.590;10.004;2024-03-02T16:05:50;46.60;;;20.50;;
239;SDS011;104;53.590;10.004;2024-03-02T16:08:17;49.23;;;21.67;;
239;SDS011;104;53.590;10.004;2024-03-02T16:10:46;50.33;;;21.03;;
239;SDS011;104;53.590;10.004;2024-03-02T16:13:13;44.13;;;20.43;;
239;SDS011;104;53.590;10.004;2024-03-02T16:15:41;46.20;;;20.93;;
239;SDS011;104;53.590;10.004;2024-03-02T16:18:08;49.43;;;22.17;;
239;SDS011;104;53.590;10.004;2024-03-02T16:20:35;46.37;;;21.50;;
239;SDS011;104;53.590;10.004;2024-03-02T16:23:03;48.83;;;21.90;;
239;SDS011;104;53.590;10.004;2024-03-02T16:25:31;65.10;;;23.10;;
239;SDS011;104;53.590;10.004;2024-03-02T16:27:59;48.23;;;21.40;;
239;SDS011;104;53.590;10.004;2024-03-02T16:30:28;56.77;;;24.00;;
239;SDS011;104;53.590;10.004;2024-03-02T16:32:55;55.73;;;23.00;;
239;SDS011;104;53.590;10.004;2024-03-02T16:35:23;54.60;;;23.67;;
239;SDS011;104;53.590;10.004;2024-03-02T16:37:51;44.83;;;22.10;;
239;SDS011;104;53.590;10.004;2024-03-02T16:40:18;51.47;;;23.97;;
239;SDS011;104;53.590;10.004;2024-03-02T16:42:45;47.60;;;22.73;;
239;SDS011;104;53.590;10.004;2024-03-02T16:45:14;52.43;;;23.27;;
239;SDS011;104;53.590;10.004;2024-03-02T16:47:41;54.30;;;24.10;;
239;SDS011;104;53.590;10.004;2024-03-02T16:50:08;56.30;;;25.37;;
239;SDS011;104;53.590;10.004;2024-03-02T16:52:37;54.97;;;24.13;;
239;SDS011;104;53.590;10.004;2024-03-02T16:55:04;53.87;;;22.90;;
239;SDS011;104;53.590;10.004;2024-03-02T16:57:32;53.20;;;23.07;;
239;SDS011;104;53.590;10.004;2024-03-02T16:59:59;50.13;;;22.37;;
239;SDS011;104;53.590;10.004;2024-03-02T17:02:28;52.87;;;25.37;;
239;SDS011;104;53.590;10.004;2024-03-02T17:04:56;56.03;;;24.37;;
239;SDS011;104;53.590;10.004;2024-03-02T17:07:23;51.87;;;25.00;;
239;SDS011;104;53.590;10.004;2024-03-02T17:09:54;59.23;;;24.70;;
239;SDS011;104;53.590;10.004;2024-03-02T17:12:23;52.87;;;24.37;;
239;SDS011;104;53.590;10.004;2024-03-02T17:14:50;64.00;;;26.73;;
239;SDS011;104;53.590;10.004;2024-03-02T17:17:17;51.50;;;24.20;;
239;SDS011;104;53.590;10.004;2024-03-02T17:19:46;52.73;;;24.47;;
239;SDS011;104;53.590;10.004;2024-03-02T17:22:13;50.87;;;22.80;;
239;SDS011;104;53.590;10.004;2024-03-02T17:24:41;57.80;;;23.30;;
239;SDS011;104;53.590;10.004;2024-03-02T17:27:08;53.17;;;24.87;;
239;SDS011;104;53.590;10.004;2024-03-02T17:29:36;60.87;;;26.37;;
239;SDS011;104;53.590;10.004;2024-03-02T17:32:03;64.23;;;27.17;;
239;SDS011;104;53.590;10.004;2024-03-02T17:34:30;61.13;;;26.90;;
239;SDS011;104;53.590;10.004;2024-03-02T17:36:59;65.10;;;29.97;;
239;SDS011;104;53.590;10.004;2024-03-02T17:39:29;83.30;;;28.67;;
239;SDS011;104;53.590;10.004;2024-03-02T17:41:57;72.43;;;30.00;;
239;SDS011;104;53.590;10.004;2024-03-02T17:44:25;59.90;;;27.30;;
239;SDS011;104;53.590;10.004;2024-03-02T17:46:52;62.90;;;28.43;;
239;SDS011;104;53.590;10.004;2024-03-02T17:49:20;86.70;;;29.50;;
239;SDS011;104;53.590;10.004;2024-03-02T17:51:47;61.60;;;28.13;;
239;SDS011;104;53.590;10.004;2024-03-02T17:54:16;61.43;;;27.80;;
239;SDS011;104;53.590;10.004;2024-03-02T17:56:44;76.50;;;30.30;;
239;SDS011;104;53.590;10.004;2024-03-02T17:59:11;66.27;;;29.73;;
239;SDS011;104;53.590;10.004;2024-03-02T18:01:39;65.63;;;28.90;;
239;SDS011;104;53.590;10.004;2024-03-02T18:04:06;59.77;;;27.73;;
239;SDS011;104;53.590;10.004;2024-03-02T18:06:34;64.00;;;29.37;;
239;SDS011;104;53.590;10.004;2024-03-02T18:09:02;65.97;;;29.20;;
239;SDS011;104;53.590;10.004;2024-03-02T18:11:31;62.63;;;27.00;;
239;SDS011;104;53.590;10.004;2024-03-02T18:13:59;58.87;;;26.83;;
239;SDS011;104;53.590;10.004;2024-03-02T18:16:29;59.00;;;26.20;;
239;SDS011;104;53.590;10.004;2024-03-02T18:18:57;63.30;;;27.43;;
239;SDS011;104;53.590;10.004;2024-03-02T18:21:24;65.80;;;28.40;;
239;SDS011;104;53.590;10.004;2024-03-02T18:23:53;59.33;;;28.30;;
239;SDS011;104;53.590;10.004;2024-03-02T18:26:20;56.70;;;27.50;;
239;SDS011;104;53.590;10.004;2024-03-02T18:28:50;54.07;;;25.40;;
239;SDS011;104;53.590;10.004;2024-03-02T18:31:18;54.43;;;26.10;;
239;SDS011;104;53.590;10.004;2024-03-02T18:33:47;58.03;;;25.33;;
239;SDS011;104;53.590;10.004;2024-03-02T18:36:15;61.67;;;27.37;;
239;SDS011;104;53.590;10.004;2024-03-02T18:38:42;58.77;;;27.40;;
239;SDS011;104;53.590;10.004;2024-03-02T18:41:10;51.63;;;24.70;;
239;SDS011;104;53.590;10.004;2024-03-02T18:43:37;52.50;;;25.90;;
239;SDS011;104;53.590;10.004;2024-03-02T18:46:07;62.23;;;27.30;;
239;SDS011;104;53.590;10.004;2024-03-02T18:48:37;62.37;;;27.37;;
239;SDS011;104;53.590;10.004;2024-03-02T18:51:07;58.73;;;25.30;;
239;SDS011;104;53.590;10.004;2024-03-02T18:53:35;60.17;;;25.60;;
239;SDS011;104;53.590;10.004;2024-03-02T18:56:02;54.03;;;26.53;;
239;SDS011;104;53.590;10.004;2024-03-02T18:58:30;51.23;;;23.67;;
239;SDS011;104;53.590;10.004;2024-03-02T19:00:57;53.97;;;25.90;;
239;SDS011;104;53.590;10.004;2024-03-02T19:03:26;52.87;;;23.67;;
239;SDS011;104;53.590;10.004;2024-03-02T19:05:54;46.30;;;22.80;;
239;SDS011;104;53.590;10.004;2024-03-02T19:08:21;46.87;;;23.57;;
239;SDS011;104;53.590;10.004;2024-03-02T19:10:49;51.13;;;23.97;;
239;SDS011;104;53.590;10.004;2024-03-02T19:13:16;47.07;;;23.37;;
239;SDS011;104;53.590;10.004;2024-03-02T19:15:43;49.37;;;23.60;;
239;SDS011;104;53.590;10.004;2024-03-02T19:18:11;54.00;;;23.97;;
239;SDS011;104;53.590;10.004;2024-03-02T19:20:41;65.10;;;24.50;;
239;SDS011;104;53.590;10.004;2024-03-02T19:23:09;57.27;;;25.03;;
239;SDS011;104;53.590;10.004;2024-03-02T19:25:44;53.33;;;25.20;;
239;SDS011;104;53.590;10.004;2024-03-02T19:28:12;54.30;;;24.53;;
239;SDS011;104;53.590;10.004;2024-03-02T19:30:42;48.97;;;24.57;;
239;SDS011;104;53.590;10.004;2024-03-02T19:33:11;53.30;;;24.60;;
239;SDS011;104;53.590;10.004;2024-03-02T19:35:39;55.87;;;25.23;;
239;SDS011;104;53.590;10.004;2024-03-02T19:38:08;43.07;;;23.67;;
239;SDS011;104;53.590;10.004;2024-03-02T19:40:35;48.63;;;24.20;;
239;SDS011;104;53.590;10.004;2024-03-02T19:43:02;49.23;;;25.47;;
239;SDS011;104;53.590;10.004;2024-03-02T19:45:30;54.03;;;26.20;;
239;SDS011;104;53.590;10.004;2024-03-02T19:47:57;56.40;;;25.67;;
239;SDS011;104;53.590;10.004;2024-03-02T19:50:24;53.87;;;25.93;;
239;SDS011;104;53.590;10.004;2024-03-02T19:52:51;47.53;;;25.97;;
239;SDS011;104;53.590;10.004;2024-03-02T19:55:20;55.20;;;25.33;;
239;SDS011;104;53.590;10.004;2024-03-02T19:57:54;53.40;;;26.13;;
239;SDS011;104;53.590;10.004;2024-03-02T20:00:21;57.20;;;25.60;;
239;SDS011;104;53.590;10.004;2024-03-02T20:02:48;57.53;;;26.27;;
239;SDS011;104;53.590;10.004;2024-03-02T20:05:16;48.60;;;25.03;;
239;SDS011;104;53.590;10.004;2024-03-02T20:07:43;51.17;;;24.30;;
239;SDS011;104;53.590;10.004;2024-03-02T20:10:10;58.67;;;26.60;;
239;SDS011;104;53.590;10.004;2024-03-02T20:12:39;46.73;;;24.77;;
239;SDS011;104;53.590;10.004;2024-03-02T20:15:07;49.87;;;25.07;;
239;SDS011;104;53.590;10.004;2024-03-02T20:17:35;51.40;;;26.13;;
239;SDS011;104;53.590;10.004;2024-03-02T20:20:04;56.30;;;26.40;;
239;SDS011;104;53.590;10.004;2024-03-02T20:22:31;57.03;;;27.50;;
239;SDS011;104;53.590;10.004;2024-03-02T20:24:58;54.53;;;25.97;;
239;SDS011;104;53.590;10.004;2024-03-02T20:27:26;53.47;;;25.23;;
239;SDS011;104;53.590;10.004;2024-03-02T20:29:54;58.17;;;27.80;;
239;SDS011;104;53.590;10.004;2024-03-02T20:32:22;56.93;;;28.23;;
239;SDS011;104;53.590;10.004;2024-03-02T20:34:49;52.30;;;27.20;;
239;SDS011;104;53.590;10.004;2024-03-02T20:37:16;53.53;;;27.60;;
239;SDS011;104;53.590;10.004;2024-03-02T20:39:48;54.30;;;28.60;;
239;SDS011;104;53.590;10.004;2024-03-02T20:42:15;61.73;;;29.20;;
239;SDS011;104;53.590;10.004;2024-03-02T20:44:43;62.43;;;29.00;;
239;SDS011;104;53.590;10.004;2024-03-02T20:47:11;62.67;;;29.57;;
239;SDS011;104;53.590;10.004;2024-03-02T20:49:39;62.07;;;31.50;;
239;SDS011;104;53.590;10.004;2024-03-02T20:52:07;66.30;;;31.03;;
239;SDS011;104;53.590;10.004;2024-03-02T20:54:34;58.37;;;28.87;;
239;SDS011;104;53.590;10.004;2024-03-02T20:57:02;66.40;;;30.47;;
239;SDS011;104;53.590;10.004;2024-03-02T20:59:31;55.93;;;28.50;;